createdAt,value
2022-12-29T00:02:19.165Z,10.27
2022-12-29T00:04:48.925Z,10.33
2022-12-29T00:07:16.845Z,10.40
2022-12-29T00:09:46.441Z,10.39
2022-12-29T00:12:14.368Z,10.48
2022-12-29T00:15:00.289Z,10.63
2022-12-29T00:17:28.541Z,10.64
2022-12-29T00:20:15.544Z,10.69
2022-12-29T00:23:03.479Z,10.72
2022-12-29T00:25:49.408Z,10.75
2022-12-29T00:28:35.000Z,10.79
2022-12-29T00:31:20.733Z,10.85
2022-12-29T00:34:06.436Z,10.82
2022-12-29T00:36:39.170Z,10.83
2022-12-29T00:39:27.884Z,10.85
2022-12-29T00:42:13.605Z,10.83
2022-12-29T00:44:41.581Z,10.86
2022-12-29T00:47:11.608Z,10.85
2022-12-29T00:49:39.354Z,10.88
2022-12-29T00:52:10.743Z,10.85
2022-12-29T00:54:40.156Z,10.81
2022-12-29T00:57:10.549Z,10.81
2022-12-29T00:59:39.473Z,10.76
2022-12-29T01:02:08.227Z,10.77
2022-12-29T01:04:36.848Z,10.78
2022-12-29T01:07:05.635Z,10.78
2022-12-29T01:09:52.680Z,10.82
2022-12-29T01:12:41.185Z,10.81
2022-12-29T01:15:13.704Z,10.78
2022-12-29T01:17:43.613Z,10.70
2022-12-29T01:20:12.678Z,10.63
2022-12-29T01:22:43.367Z,10.70
2022-12-29T01:25:12.850Z,10.75
2022-12-29T01:27:41.545Z,10.86
2022-12-29T01:30:10.682Z,10.97
2022-12-29T01:32:39.036Z,11.08
2022-12-29T01:35:07.497Z,11.10
2022-12-29T01:37:36.923Z,11.05
2022-12-29T01:40:05.627Z,11.06
2022-12-29T01:42:35.604Z,11.09
2022-12-29T01:45:05.164Z,11.14
2022-12-29T01:47:36.985Z,11.23
2022-12-29T01:50:07.645Z,11.35
2022-12-29T01:52:37.398Z,11.45
2022-12-29T01:55:07.420Z,11.56
2022-12-29T01:57:40.075Z,11.63
2022-12-29T02:00:10.400Z,11.69
2022-12-29T02:02:42.662Z,11.69
2022-12-29T02:05:18.093Z,11.63
2022-12-29T02:07:47.077Z,11.49
2022-12-29T02:10:15.545Z,11.64
2022-12-29T02:12:45.151Z,11.66
2022-12-29T02:15:13.156Z,11.56
2022-12-29T02:17:52.253Z,11.55
2022-12-29T02:20:48.232Z,11.42
2022-12-29T02:24:00.667Z,11.51
2022-12-29T02:26:50.781Z,11.49
2022-12-29T02:29:38.592Z,11.64
2022-12-29T02:32:10.309Z,11.68
2022-12-29T02:34:46.668Z,11.67
2022-12-29T02:37:22.212Z,11.75
2022-12-29T02:39:54.318Z,11.75
2022-12-29T02:42:25.250Z,11.78
2022-12-29T02:44:57.737Z,11.74
2022-12-29T02:47:32.264Z,11.73
2022-12-29T02:50:04.597Z,11.76
2022-12-29T02:52:36.215Z,11.68
2022-12-29T02:55:03.911Z,11.54
2022-12-29T02:57:34.836Z,11.58
2022-12-29T03:00:08.523Z,11.58
2022-12-29T03:02:50.210Z,11.52
2022-12-29T03:05:32.503Z,11.55
2022-12-29T03:08:06.537Z,11.58
2022-12-29T03:10:40.927Z,11.64
2022-12-29T03:13:32.413Z,11.72
2022-12-29T03:16:06.663Z,11.71
2022-12-29T03:18:41.791Z,11.59
2022-12-29T03:21:14.440Z,11.61
2022-12-29T03:23:48.405Z,11.63
2022-12-29T03:26:19.492Z,11.57
2022-12-29T03:28:50.847Z,11.56
2022-12-29T03:31:24.837Z,11.47
2022-12-29T03:33:57.676Z,11.44
2022-12-29T03:36:34.614Z,11.39
2022-12-29T03:39:06.055Z,11.40
2022-12-29T03:41:35.113Z,11.37
2022-12-29T03:44:04.859Z,11.29
2022-12-29T03:46:33.644Z,11.32
2022-12-29T03:49:03.560Z,11.24
2022-12-29T03:51:31.849Z,11.22
2022-12-29T03:53:59.896Z,11.21
2022-12-29T03:56:28.839Z,11.22
2022-12-29T03:58:56.815Z,11.27
2022-12-29T04:01:40.181Z,11.29
2022-12-29T04:04:10.535Z,11.34
2022-12-29T04:06:38.770Z,11.30
2022-12-29T04:09:08.664Z,11.35
2022-12-29T04:11:42.568Z,11.37
2022-12-29T04:14:10.621Z,11.31
2022-12-29T04:16:39.804Z,11.36
2022-12-29T04:19:10.157Z,11.41
2022-12-29T04:21:38.977Z,11.39
2022-12-29T04:24:08.311Z,11.39
2022-12-29T04:26:41.307Z,11.36
2022-12-29T04:29:29.521Z,11.44
2022-12-29T04:32:16.143Z,11.51
2022-12-29T04:34:50.766Z,11.46
2022-12-29T04:37:19.963Z,11.49
2022-12-29T04:39:48.115Z,11.53
2022-12-29T04:42:16.372Z,11.54
2022-12-29T04:44:45.499Z,11.56
2022-12-29T04:47:19.162Z,11.60
2022-12-29T04:49:55.740Z,11.67
2022-12-29T04:52:39.784Z,11.71
2022-12-29T04:55:10.448Z,11.70
2022-12-29T04:57:38.725Z,11.69
2022-12-29T05:00:09.880Z,11.71
2022-12-29T05:02:38.967Z,11.76
2022-12-29T05:05:09.577Z,11.70
2022-12-29T05:07:42.564Z,11.66
2022-12-29T05:10:11.661Z,11.71
2022-12-29T05:12:40.436Z,11.69
2022-12-29T05:15:13.041Z,11.67
2022-12-29T05:17:41.216Z,11.67
2022-12-29T05:20:12.369Z,11.68
2022-12-29T05:22:40.515Z,11.73
2022-12-29T05:25:09.775Z,11.71
2022-12-29T05:27:49.759Z,11.75
2022-12-29T05:30:23.457Z,11.76
2022-12-29T05:32:51.660Z,11.86
2022-12-29T05:35:21.405Z,11.93
2022-12-29T05:37:49.611Z,11.83
2022-12-29T05:40:17.813Z,11.83
2022-12-29T05:42:46.068Z,11.84
2022-12-29T05:45:30.508Z,11.79
2022-12-29T05:48:26.358Z,11.79
2022-12-29T05:51:34.066Z,11.78
2022-12-29T05:54:02.573Z,11.73
2022-12-29T05:56:30.602Z,11.76
2022-12-29T05:59:00.444Z,11.72
2022-12-29T06:01:28.502Z,11.70
2022-12-29T06:03:56.780Z,11.69
2022-12-29T06:06:24.820Z,11.71
2022-12-29T06:08:54.579Z,11.69
2022-12-29T06:11:22.926Z,11.68
2022-12-29T06:13:56.699Z,11.63
2022-12-29T06:16:25.948Z,11.61
2022-12-29T06:18:57.423Z,11.66
2022-12-29T06:21:25.376Z,11.65
2022-12-29T06:23:54.920Z,11.68
2022-12-29T06:26:22.921Z,11.66
2022-12-29T06:28:51.065Z,11.64
2022-12-29T06:31:19.088Z,11.60
2022-12-29T06:33:50.052Z,11.61
2022-12-29T06:36:18.490Z,11.63
2022-12-29T06:38:46.699Z,11.60
2022-12-29T06:41:16.033Z,11.59
2022-12-29T06:43:45.517Z,11.69
2022-12-29T06:46:30.618Z,11.64
2022-12-29T06:48:58.815Z,11.57
2022-12-29T06:51:26.759Z,11.63
2022-12-29T06:53:54.954Z,11.61
2022-12-29T06:56:24.278Z,11.69
2022-12-29T06:58:52.404Z,11.72
2022-12-29T07:01:20.417Z,11.65
2022-12-29T07:03:48.658Z,11.67
2022-12-29T07:06:16.789Z,11.68
2022-12-29T07:08:44.946Z,11.69
2022-12-29T07:11:12.881Z,11.69
2022-12-29T07:13:42.415Z,11.68
2022-12-29T07:16:11.398Z,11.69
2022-12-29T07:18:39.729Z,11.68
2022-12-29T07:21:07.722Z,11.73
2022-12-29T07:23:35.912Z,11.73
2022-12-29T07:26:05.977Z,11.73
2022-12-29T07:28:34.224Z,11.75
2022-12-29T07:31:03.755Z,11.73
2022-12-29T07:33:32.526Z,11.75
2022-12-29T07:36:00.864Z,11.73
2022-12-29T07:38:29.048Z,11.76
2022-12-29T07:40:59.767Z,11.68
2022-12-29T07:43:29.195Z,11.71
2022-12-29T07:46:56.512Z,11.73
2022-12-29T07:49:15.166Z,11.72
2022-12-29T07:51:43.106Z,11.75
2022-12-29T07:54:12.928Z,11.73
2022-12-29T07:56:41.334Z,11.75
2022-12-29T07:59:09.529Z,11.73
2022-12-29T08:01:38.874Z,11.72
2022-12-29T08:04:07.247Z,11.70
2022-12-29T08:06:35.220Z,11.77
2022-12-29T08:09:11.285Z,11.77
2022-12-29T08:11:43.825Z,11.82
2022-12-29T08:14:12.298Z,11.85
2022-12-29T08:16:50.906Z,11.81
2022-12-29T08:19:19.046Z,11.89
2022-12-29T08:21:47.021Z,11.84
2022-12-29T08:24:15.201Z,11.79
2022-12-29T08:26:43.186Z,11.81
2022-12-29T08:29:11.405Z,11.87
2022-12-29T08:31:39.595Z,11.90
2022-12-29T08:34:09.196Z,11.86
2022-12-29T08:36:37.131Z,11.89
2022-12-29T08:39:05.514Z,11.88
2022-12-29T08:41:33.463Z,11.89
2022-12-29T08:44:01.762Z,11.96
2022-12-29T08:46:29.753Z,11.91
2022-12-29T08:48:58.281Z,11.94
2022-12-29T08:51:27.530Z,11.97
2022-12-29T08:53:55.720Z,11.96
2022-12-29T08:56:24.645Z,11.96
2022-12-29T08:58:56.215Z,12.01
2022-12-29T09:01:25.636Z,12.00
2022-12-29T09:04:14.027Z,12.03
2022-12-29T09:06:44.791Z,12.07
2022-12-29T09:09:13.360Z,12.08
2022-12-29T09:11:41.344Z,12.02
2022-12-29T09:14:09.637Z,12.03
2022-12-29T09:16:38.152Z,12.02
2022-12-29T09:19:06.565Z,12.12
2022-12-29T09:21:34.618Z,12.05
2022-12-29T09:24:04.489Z,12.22
2022-12-29T09:26:32.426Z,12.32
2022-12-29T09:29:00.668Z,12.47
2022-12-29T09:31:28.649Z,12.59
2022-12-29T09:33:56.815Z,12.78
2022-12-29T09:36:24.795Z,12.76
2022-12-29T09:38:55.206Z,12.76
2022-12-29T09:41:29.106Z,12.77
2022-12-29T09:44:05.620Z,12.90
2022-12-29T09:46:37.402Z,12.92
2022-12-29T09:49:11.984Z,12.97
2022-12-29T09:51:41.855Z,13.08
2022-12-29T09:54:23.319Z,13.16
2022-12-29T09:56:54.664Z,13.18
2022-12-29T09:59:26.437Z,13.18
2022-12-29T10:01:59.795Z,13.21
2022-12-29T10:04:28.717Z,13.22
2022-12-29T10:07:30.636Z,13.22
2022-12-29T10:09:55.708Z,13.20
2022-12-29T10:12:32.124Z,13.17
2022-12-29T10:15:05.720Z,13.22
2022-12-29T10:17:38.511Z,13.22
2022-12-29T10:20:27.615Z,13.25
2022-12-29T10:23:07.274Z,13.15
2022-12-29T10:25:40.805Z,13.30
2022-12-29T10:28:19.395Z,13.18
2022-12-29T10:30:49.473Z,13.12
2022-12-29T10:33:21.596Z,13.15
2022-12-29T10:35:50.328Z,13.19
2022-12-29T10:38:24.794Z,13.20
2022-12-29T10:40:56.508Z,13.09
2022-12-29T10:43:27.859Z,12.99
2022-12-29T10:45:58.405Z,13.04
2022-12-29T10:48:31.985Z,12.97
2022-12-29T10:51:02.509Z,13.01
2022-12-29T10:53:37.249Z,13.07
2022-12-29T10:56:11.285Z,13.03
2022-12-29T10:58:44.661Z,13.07
2022-12-29T11:01:16.516Z,13.07
2022-12-29T11:04:01.593Z,13.18
2022-12-29T11:06:31.269Z,13.31
2022-12-29T11:09:00.743Z,13.49
2022-12-29T11:11:35.687Z,13.67
2022-12-29T11:14:14.255Z,13.80
2022-12-29T11:16:45.487Z,13.98
2022-12-29T11:19:23.031Z,14.02
2022-12-29T11:21:51.548Z,14.19
2022-12-29T11:24:24.815Z,14.32
2022-12-29T11:26:58.096Z,14.32
2022-12-29T11:29:30.229Z,14.07
2022-12-29T11:32:00.233Z,14.00
2022-12-29T11:34:33.685Z,13.91
2022-12-29T11:37:04.827Z,13.81
2022-12-29T11:39:36.419Z,13.66
2022-12-29T11:42:05.396Z,13.53
2022-12-29T11:44:38.901Z,13.65
2022-12-29T11:47:07.546Z,13.47
2022-12-29T11:49:35.542Z,13.48
2022-12-29T11:52:03.907Z,13.33
2022-12-29T11:54:33.862Z,13.31
2022-12-29T11:57:11.994Z,13.33
2022-12-29T11:59:43.290Z,13.31
2022-12-29T12:02:27.040Z,13.28
2022-12-29T12:04:59.067Z,13.27
2022-12-29T12:07:37.828Z,13.23
2022-12-29T12:10:08.557Z,13.26
2022-12-29T12:12:40.243Z,13.18
2022-12-29T12:15:15.792Z,13.27
2022-12-29T12:17:53.761Z,13.20
2022-12-29T12:20:24.194Z,13.16
2022-12-29T12:23:00.393Z,13.71
2022-12-29T12:25:31.742Z,13.60
2022-12-29T12:28:02.695Z,14.40
2022-12-29T12:30:38.256Z,14.87
2022-12-29T12:33:08.234Z,14.61
2022-12-29T12:35:44.361Z,14.08
2022-12-29T12:38:20.882Z,13.77
2022-12-29T12:40:59.165Z,13.48
2022-12-29T12:43:39.277Z,13.42
2022-12-29T12:46:29.992Z,13.34
2022-12-29T12:49:14.012Z,13.09
2022-12-29T12:51:50.035Z,13.02
2022-12-29T12:54:32.654Z,12.94
2022-12-29T12:57:10.532Z,12.83
2022-12-29T12:59:48.529Z,12.85
2022-12-29T13:02:33.689Z,12.93
2022-12-29T13:05:29.590Z,12.87
2022-12-29T13:08:09.024Z,12.92
2022-12-29T13:10:47.080Z,12.95
2022-12-29T13:13:34.726Z,13.19
2022-12-29T13:16:12.393Z,13.09
2022-12-29T13:18:50.721Z,13.00
2022-12-29T13:21:29.280Z,13.22
2022-12-29T13:24:03.169Z,13.12
2022-12-29T13:26:34.825Z,13.18
2022-12-29T13:29:08.643Z,13.22
2022-12-29T13:31:42.404Z,12.99
2022-12-29T13:34:19.063Z,12.99
2022-12-29T13:36:48.584Z,12.97
2022-12-29T13:39:21.396Z,12.91
2022-12-29T13:41:51.926Z,12.77
2022-12-29T13:44:23.706Z,12.48
2022-12-29T13:46:51.937Z,12.39
2022-12-29T13:49:22.829Z,12.39
2022-12-29T13:51:52.681Z,12.33
2022-12-29T13:54:29.067Z,12.29
2022-12-29T13:57:04.875Z,12.26
2022-12-29T13:59:41.846Z,12.16
2022-12-29T14:02:19.007Z,12.08
2022-12-29T14:05:00.216Z,12.08
2022-12-29T14:07:29.097Z,12.07
2022-12-29T14:09:58.452Z,11.93
2022-12-29T14:12:32.421Z,11.79
2022-12-29T14:15:16.335Z,11.70
2022-12-29T14:18:02.338Z,11.65
2022-12-29T14:20:31.958Z,11.63
2022-12-29T14:23:02.367Z,11.59
2022-12-29T14:25:59.339Z,11.55
2022-12-29T14:28:29.752Z,11.46
2022-12-29T14:30:59.190Z,11.46
2022-12-29T14:33:30.202Z,11.45
2022-12-29T14:36:22.799Z,11.46
2022-12-29T14:38:51.107Z,11.20
2022-12-29T14:41:25.752Z,11.02
2022-12-29T14:43:57.056Z,10.90
2022-12-29T14:46:26.489Z,10.93
2022-12-29T14:49:01.805Z,10.83
2022-12-29T14:51:33.911Z,10.95
2022-12-29T14:54:02.382Z,10.75
2022-12-29T14:56:32.200Z,10.97
2022-12-29T14:59:03.248Z,10.79
2022-12-29T15:01:42.199Z,10.79
2022-12-29T15:04:19.688Z,10.67
2022-12-29T15:06:51.865Z,10.77
2022-12-29T15:09:27.075Z,10.70
2022-12-29T15:11:57.069Z,10.68
2022-12-29T15:14:37.233Z,10.60
2022-12-29T15:17:12.662Z,10.60
2022-12-29T15:19:40.789Z,10.66
2022-12-29T15:22:11.412Z,10.73
2022-12-29T15:24:43.550Z,10.80
2022-12-29T15:27:15.269Z,10.90
2022-12-29T15:29:44.827Z,10.95
2022-12-29T15:32:20.245Z,10.94
2022-12-29T15:34:50.034Z,10.94
2022-12-29T15:37:23.075Z,10.86
2022-12-29T15:39:51.620Z,10.80
2022-12-29T15:42:31.905Z,10.71
2022-12-29T15:45:10.273Z,10.57
2022-12-29T15:47:39.054Z,10.52
2022-12-29T15:50:10.771Z,10.45
2022-12-29T15:52:41.157Z,10.42
2022-12-29T15:55:21.499Z,10.46
2022-12-29T15:57:49.421Z,10.42
2022-12-29T16:00:29.063Z,10.13
2022-12-29T16:02:59.488Z,10.21
2022-12-29T16:05:33.868Z,10.17
2022-12-29T16:08:03.625Z,10.11
2022-12-29T16:10:35.384Z,10.07
2022-12-29T16:13:05.355Z,9.97
2022-12-29T16:15:33.512Z,10.01
2022-12-29T16:18:01.639Z,9.90
2022-12-29T16:20:39.152Z,9.87
2022-12-29T16:23:18.973Z,9.89
2022-12-29T16:25:47.227Z,9.93
2022-12-29T16:28:19.903Z,9.88
2022-12-29T16:30:48.312Z,9.89
2022-12-29T16:33:37.642Z,9.85
2022-12-29T16:36:28.309Z,9.88
2022-12-29T16:39:29.224Z,10.16
2022-12-29T16:41:57.917Z,10.17
2022-12-29T16:44:27.774Z,10.06
2022-12-29T16:47:20.524Z,9.92
2022-12-29T16:49:54.388Z,9.92
2022-12-29T16:52:25.687Z,9.89
2022-12-29T16:54:56.967Z,9.91
2022-12-29T16:57:31.048Z,9.96
2022-12-29T17:00:01.696Z,9.98
2022-12-29T17:02:31.826Z,10.06
2022-12-29T17:04:59.895Z,10.00
2022-12-29T17:07:29.372Z,9.94
2022-12-29T17:09:58.783Z,9.94
2022-12-29T17:12:28.335Z,9.85
2022-12-29T17:14:57.227Z,9.82
2022-12-29T17:17:32.760Z,9.87
2022-12-29T17:20:03.896Z,9.85
2022-12-29T17:22:32.940Z,9.97
2022-12-29T17:25:03.587Z,10.04
2022-12-29T17:27:35.845Z,9.94
2022-12-29T17:30:07.167Z,9.93
2022-12-29T17:32:35.409Z,9.93
2022-12-29T17:35:03.910Z,9.94
2022-12-29T17:37:37.356Z,9.97
2022-12-29T17:40:08.820Z,9.92
2022-12-29T17:42:39.871Z,9.98
2022-12-29T17:45:13.390Z,10.08
2022-12-29T17:47:41.642Z,10.11
2022-12-29T17:50:12.947Z,9.94
2022-12-29T17:52:41.116Z,9.93
2022-12-29T17:55:16.697Z,9.98
2022-12-29T17:57:44.928Z,9.85
2022-12-29T18:00:16.740Z,9.88
2022-12-29T18:02:45.304Z,9.97
2022-12-29T18:05:19.265Z,10.01
2022-12-29T18:07:47.765Z,10.02
2022-12-29T18:10:17.153Z,9.94
2022-12-29T18:12:47.194Z,9.94
2022-12-29T18:15:20.576Z,9.73
2022-12-29T18:17:49.121Z,9.82
2022-12-29T18:20:17.735Z,9.84
2022-12-29T18:22:45.672Z,9.97
2022-12-29T18:25:24.646Z,9.72
2022-12-29T18:27:52.774Z,9.69
2022-12-29T18:30:20.969Z,9.57
2022-12-29T18:32:48.971Z,9.65
2022-12-29T18:35:19.851Z,9.57
2022-12-29T18:37:47.805Z,9.50
2022-12-29T18:40:16.160Z,9.54
2022-12-29T18:42:45.461Z,9.52
2022-12-29T18:45:17.057Z,9.49
2022-12-29T18:47:44.986Z,9.47
2022-12-29T18:50:13.610Z,9.47
2022-12-29T18:52:41.551Z,9.48
2022-12-29T18:55:13.434Z,9.48
2022-12-29T18:57:41.533Z,9.40
2022-12-29T19:00:13.649Z,9.49
2022-12-29T19:02:41.886Z,9.57
2022-12-29T19:05:20.344Z,9.59
2022-12-29T19:07:48.367Z,9.71
2022-12-29T19:10:16.823Z,9.75
2022-12-29T19:12:44.781Z,9.81
2022-12-29T19:15:23.520Z,9.84
2022-12-29T19:18:16.070Z,9.89
2022-12-29T19:20:41.692Z,9.94
2022-12-29T19:23:11.538Z,9.95
2022-12-29T19:25:40.479Z,10.01
2022-12-29T19:28:10.531Z,10.02
2022-12-29T19:30:40.024Z,10.07
2022-12-29T19:33:10.017Z,10.03
2022-12-29T19:35:38.674Z,10.14
2022-12-29T19:38:06.665Z,10.08
2022-12-29T19:40:34.999Z,10.15
2022-12-29T19:43:02.957Z,10.16
2022-12-29T19:45:31.406Z,10.13
2022-12-29T19:48:00.674Z,10.18
2022-12-29T19:50:28.832Z,10.12
2022-12-29T19:53:04.796Z,10.07
2022-12-29T19:55:33.896Z,9.94
2022-12-29T19:58:01.822Z,9.80
2022-12-29T20:00:31.063Z,9.64
2022-12-29T20:03:00.425Z,9.55
2022-12-29T20:05:28.914Z,9.51
2022-12-29T20:07:56.778Z,9.54
2022-12-29T20:10:24.937Z,9.45
2022-12-29T20:12:52.838Z,9.52
2022-12-29T20:15:21.033Z,9.47
2022-12-29T20:20:38.673Z,9.27
2022-12-29T20:23:06.627Z,9.26
2022-12-29T20:25:44.724Z,9.18
2022-12-29T20:28:15.340Z,9.16
2022-12-29T20:30:44.029Z,9.14
2022-12-29T20:33:11.945Z,9.18
2022-12-29T20:35:41.580Z,9.15
2022-12-29T20:38:09.471Z,9.09
2022-12-29T20:40:44.271Z,8.98
2022-12-29T20:43:15.723Z,8.98
2022-12-29T20:45:44.312Z,8.97
2022-12-29T20:48:12.424Z,8.94
2022-12-29T20:50:41.992Z,8.91
2022-12-29T20:53:11.526Z,8.89
2022-12-29T20:55:41.260Z,8.87
2022-12-29T20:58:25.612Z,8.86
2022-12-29T21:00:54.223Z,8.97
2022-12-29T21:03:22.589Z,8.98
2022-12-29T21:05:53.509Z,9.00
2022-12-29T21:08:22.035Z,9.00
2022-12-29T21:10:51.080Z,9.03
2022-12-29T21:13:19.023Z,8.98
2022-12-29T21:15:47.794Z,8.92
2022-12-29T21:18:15.730Z,8.89
2022-12-29T21:20:43.934Z,8.92
2022-12-29T21:23:13.358Z,8.89
2022-12-29T21:25:44.622Z,9.00
2022-12-29T21:28:13.057Z,8.90
2022-12-29T21:30:41.694Z,8.93
2022-12-29T21:33:09.919Z,8.83
2022-12-29T21:35:38.766Z,8.89
2022-12-29T21:38:07.239Z,8.90
2022-12-29T21:40:37.550Z,8.92
2022-12-29T21:43:05.951Z,8.89
2022-12-29T21:45:34.069Z,8.91
2022-12-29T21:48:20.964Z,8.95
2022-12-29T21:51:09.203Z,8.89
2022-12-29T21:53:40.449Z,8.86
2022-12-29T21:56:12.938Z,8.81
2022-12-29T21:59:01.326Z,8.87
2022-12-29T22:01:49.222Z,8.95
2022-12-29T22:04:36.465Z,9.02
2022-12-29T22:07:23.431Z,8.99
2022-12-29T22:10:09.281Z,8.96
2022-12-29T22:12:56.908Z,8.83
2022-12-29T22:15:24.909Z,8.79
2022-12-29T22:17:54.918Z,8.96
2022-12-29T22:20:24.604Z,8.99
2022-12-29T22:22:53.004Z,8.98
2022-12-29T22:25:21.222Z,8.93
2022-12-29T22:27:55.642Z,8.95
2022-12-29T22:30:27.327Z,8.93
2022-12-29T22:32:56.500Z,9.01
2022-12-29T22:35:24.737Z,8.96
2022-12-29T22:37:52.955Z,8.93
2022-12-29T22:40:21.132Z,9.04
2022-12-29T22:42:50.642Z,9.01
2022-12-29T22:45:18.836Z,8.97
2022-12-29T22:47:47.055Z,8.95
2022-12-29T22:50:14.979Z,8.93
2022-12-29T22:52:43.160Z,8.90
2022-12-29T22:55:11.179Z,8.90
2022-12-29T22:57:39.438Z,8.86
2022-12-29T23:00:10.248Z,8.77
2022-12-29T23:02:39.084Z,8.83
2022-12-29T23:05:07.670Z,8.80
2022-12-29T23:07:36.662Z,8.83
2022-12-29T23:10:05.697Z,8.77
2022-12-29T23:12:33.910Z,8.81
2022-12-29T23:15:01.907Z,8.72
2022-12-29T23:17:31.888Z,8.64
2022-12-29T23:19:59.783Z,8.60
2022-12-29T23:22:27.980Z,8.54
2022-12-29T23:24:55.893Z,8.54
2022-12-29T23:27:24.097Z,8.52
2022-12-29T23:29:52.017Z,8.50
2022-12-29T23:32:20.349Z,8.44
2022-12-29T23:34:49.650Z,8.46
2022-12-29T23:37:17.848Z,8.43
2022-12-29T23:39:45.734Z,8.43
2022-12-29T23:42:13.922Z,8.41
2022-12-29T23:44:41.854Z,8.47
2022-12-29T23:47:10.062Z,8.59
2022-12-29T23:49:38.010Z,8.69
2022-12-29T23:52:07.551Z,8.75
2022-12-29T23:54:35.448Z,8.88
2022-12-29T23:57:03.587Z,8.84
2022-12-29T23:59:31.495Z,8.95
